createdAt,value
2022-12-13T02:21:07.816Z,-1.63
2022-12-13T02:22:17.766Z,-1.53
2022-12-13T02:23:41.289Z,-1.47
2022-12-13T02:24:51.017Z,-1.42
2022-12-13T02:26:00.526Z,-1.38
2022-12-13T02:27:31.211Z,-1.37
2022-12-13T02:29:11.423Z,-1.34
2022-12-13T02:30:27.134Z,-1.30
2022-12-13T02:31:34.174Z,-1.29
2022-12-13T02:33:00.247Z,-1.26
2022-12-13T02:34:14.792Z,-1.24
2022-12-13T02:35:53.035Z,-1.23
2022-12-13T02:37:00.968Z,-1.21
2022-12-13T02:38:21.483Z,-1.21
2022-12-13T02:39:30.728Z,-1.19
2022-12-13T02:40:34.279Z,-1.17
2022-12-13T02:41:48.438Z,-1.16
2022-12-13T02:43:01.083Z,-1.17
2022-12-13T02:44:21.686Z,-1.12
2022-12-13T02:45:21.036Z,-1.12
2022-12-13T02:46:28.045Z,-1.09
2022-12-13T02:47:36.399Z,-1.09
2022-12-13T02:48:42.954Z,-1.08
2022-12-13T02:49:55.563Z,-1.08
2022-12-13T03:05:24.079Z,-1.24
2022-12-13T03:08:28.905Z,-1.21
2022-12-13T03:10:01.490Z,-1.20
2022-12-13T03:11:21.034Z,-1.18
2022-12-13T03:29:25.980Z,-1.31
2022-12-13T03:42:02.015Z,-1.32
2022-12-13T03:43:08.688Z,-1.32
2022-12-13T03:44:11.749Z,-1.28
2022-12-13T03:45:42.450Z,-1.28
2022-12-13T03:47:51.852Z,-1.24
2022-12-13T03:50:26.368Z,-1.21
2022-12-13T03:51:13.188Z,-1.18
2022-12-13T03:52:17.109Z,-1.18
2022-12-13T03:53:33.767Z,-1.15
2022-12-13T03:54:28.043Z,-1.12
2022-12-13T03:55:31.992Z,-1.12
2022-12-13T03:56:35.990Z,-1.11
2022-12-13T03:57:41.548Z,-1.08
2022-12-13T04:14:02.237Z,-1.30
2022-12-13T04:15:08.633Z,-1.29
2022-12-13T04:16:12.580Z,-1.27
2022-12-13T04:17:16.496Z,-1.24
2022-12-13T04:18:21.932Z,-1.22
2022-12-13T04:19:27.418Z,-1.19
2022-12-13T04:20:31.404Z,-1.18
2022-12-13T04:21:35.371Z,-1.16
2022-12-13T04:22:39.348Z,-1.15
2022-12-13T04:23:45.607Z,-1.13
2022-12-13T04:24:49.450Z,-1.13
2022-12-13T04:25:53.379Z,-1.10
2022-12-13T04:26:57.346Z,-1.08
2022-12-13T04:28:03.002Z,-1.07
2022-12-13T04:29:06.902Z,-1.06
2022-12-13T04:30:14.526Z,-1.03
2022-12-13T04:31:18.532Z,-1.03
2022-12-13T04:32:27.336Z,-1.02
2022-12-13T04:33:47.255Z,-1.02
2022-12-13T04:34:51.109Z,-0.96
2022-12-13T04:35:56.681Z,-0.96
2022-12-13T04:37:02.257Z,-0.96
2022-12-13T04:38:07.469Z,-0.91
2022-12-13T04:39:22.820Z,-0.92
2022-12-13T04:40:21.753Z,-0.90
2022-12-13T04:41:23.216Z,-0.89
2022-12-13T04:42:27.151Z,-0.88
2022-12-13T04:43:30.990Z,-0.88
2022-12-13T04:44:37.027Z,-0.87
2022-12-13T04:45:40.530Z,-0.87
2022-12-13T04:46:45.072Z,-0.88
2022-12-13T04:47:50.689Z,-0.88
2022-12-13T04:48:54.606Z,-0.88
2022-12-13T04:49:58.595Z,-0.88
2022-12-13T04:51:04.886Z,-0.89
2022-12-13T04:52:11.029Z,-0.87
2022-12-13T04:54:26.530Z,-0.87
2022-12-13T04:55:32.152Z,-0.85
2022-12-13T04:56:40.416Z,-0.87
2022-12-13T04:57:44.501Z,-0.91
2022-12-13T04:58:48.451Z,-0.92
2022-12-13T05:15:42.847Z,-1.16
2022-12-13T05:16:48.367Z,-1.12
2022-12-13T05:17:52.372Z,-1.06
2022-12-13T05:18:57.925Z,-1.03
2022-12-13T05:20:33.218Z,-1.03
2022-12-13T05:21:11.970Z,-1.01
2022-12-13T05:22:20.312Z,-1.01
2022-12-13T05:23:27.601Z,-1.00
2022-12-13T05:24:37.274Z,-1.00
2022-12-13T05:25:41.301Z,-1.00
2022-12-13T05:26:45.506Z,-1.01
2022-12-13T05:27:51.355Z,-1.02
2022-12-13T05:28:59.869Z,-1.02
2022-12-13T05:30:06.848Z,-0.98
2022-12-13T05:31:23.704Z,-0.96
2022-12-13T05:32:20.472Z,-0.95
2022-12-13T05:33:27.240Z,-0.95
2022-12-13T05:34:32.321Z,-0.95
2022-12-13T05:35:37.999Z,-0.94
2022-12-13T05:36:41.955Z,-0.93
2022-12-13T05:39:28.189Z,-0.90
2022-12-13T05:40:22.367Z,-0.89
2022-12-13T05:43:00.725Z,-0.88
2022-12-13T05:44:04.718Z,-0.88
2022-12-13T05:45:10.489Z,-0.87
2022-12-13T05:46:14.646Z,-0.87
2022-12-13T05:47:18.819Z,-0.86
2022-12-13T05:48:24.486Z,-0.84
2022-12-13T05:49:28.401Z,-0.82
2022-12-13T05:50:32.492Z,-0.83
2022-12-13T05:51:36.411Z,-0.80
2022-12-13T05:52:40.445Z,-0.81
2022-12-13T05:53:49.993Z,-0.80
2022-12-13T05:54:56.359Z,-0.81
2022-12-13T05:56:03.645Z,-0.81
2022-12-13T05:57:07.578Z,-0.80
2022-12-13T05:58:13.081Z,-0.79
2022-12-13T05:59:18.914Z,-0.80
2022-12-13T06:00:30.184Z,-0.78
2022-12-13T06:01:30.752Z,-0.79
2022-12-13T10:30:26.342Z,0.03
2022-12-13T10:31:26.885Z,0.17
2022-12-13T10:32:37.813Z,0.20
2022-12-13T10:33:46.936Z,0.20
2022-12-13T10:34:54.948Z,0.23
2022-12-13T10:36:16.771Z,0.23
2022-12-13T10:37:31.946Z,0.25
2022-12-13T10:38:38.691Z,0.28
2022-12-13T10:39:45.921Z,0.31
2022-12-13T10:40:57.242Z,0.31
2022-12-13T10:42:11.707Z,0.35
2022-12-13T10:43:20.150Z,0.36
2022-12-13T10:44:26.369Z,0.36
2022-12-13T10:45:33.393Z,0.40
2022-12-13T10:46:49.551Z,0.43
2022-12-13T10:47:53.482Z,0.43
2022-12-13T10:48:59.253Z,0.42
2022-12-13T10:50:05.281Z,0.42
2022-12-13T10:51:15.425Z,0.42
2022-12-13T10:52:31.652Z,0.39
2022-12-13T10:53:47.428Z,0.42
2022-12-13T10:54:49.431Z,0.43
2022-12-13T10:56:02.483Z,0.44
2022-12-13T10:57:03.474Z,0.43
2022-12-13T10:58:18.645Z,0.41
2022-12-13T10:59:36.860Z,0.42
2022-12-13T11:00:47.839Z,0.39
2022-12-13T11:01:51.998Z,0.38
2022-12-13T11:02:58.883Z,0.37
2022-12-13T11:04:07.441Z,0.37
2022-12-13T11:05:30.147Z,0.36
2022-12-13T11:06:45.597Z,0.38
2022-12-13T11:07:56.310Z,0.38
2022-12-13T11:09:04.613Z,0.34
2022-12-13T11:10:27.685Z,0.37
2022-12-13T11:11:35.300Z,0.38
2022-12-13T11:12:59.744Z,0.40
2022-12-13T11:16:45.420Z,0.37
2022-12-13T11:17:59.898Z,0.40
2022-12-13T11:19:27.804Z,0.40
2022-12-13T11:20:43.410Z,0.40
2022-12-13T11:21:49.825Z,0.35
2022-12-13T11:27:59.785Z,0.23
2022-12-13T11:29:24.280Z,0.23
2022-12-13T11:30:40.293Z,0.21
2022-12-13T11:33:14.621Z,0.16
2022-12-13T11:34:47.516Z,0.15
2022-12-13T11:36:26.307Z,0.16
2022-12-13T11:37:39.179Z,0.16
2022-12-13T11:44:17.811Z,0.23
2022-12-13T11:44:29.587Z,0.23
2022-12-13T11:45:48.422Z,0.20
2022-12-13T11:46:59.139Z,0.18
2022-12-13T11:48:13.618Z,0.18
2022-12-13T11:49:20.692Z,0.18
2022-12-13T11:51:08.878Z,0.21
2022-12-13T11:52:33.237Z,0.21
2022-12-13T11:53:41.531Z,0.24
2022-12-13T11:54:50.095Z,0.24
2022-12-13T11:55:57.045Z,0.25
2022-12-13T11:57:06.382Z,0.29
2022-12-13T11:58:53.887Z,0.30
2022-12-13T11:59:51.872Z,0.30
2022-12-13T12:01:19.541Z,0.33
2022-12-13T12:02:38.973Z,0.33
2022-12-13T12:03:48.848Z,0.32
2022-12-13T12:05:00.436Z,0.31
2022-12-13T12:06:13.696Z,0.30
2022-12-13T12:07:35.950Z,0.30
2022-12-13T12:08:46.061Z,0.32
2022-12-13T12:10:17.083Z,0.32
2022-12-13T12:11:25.666Z,0.35
2022-12-13T12:12:41.713Z,0.33
2022-12-13T12:13:52.092Z,0.33
2022-12-13T12:15:05.155Z,0.31
2022-12-13T12:16:15.150Z,0.30
2022-12-13T12:23:25.864Z,0.23
2022-12-13T12:24:41.675Z,0.23
2022-12-13T12:25:48.663Z,0.18
2022-12-13T12:27:13.689Z,0.16
2022-12-13T12:28:43.951Z,0.15
2022-12-13T12:30:06.589Z,0.16
2022-12-13T12:31:13.675Z,0.15
2022-12-13T12:32:35.830Z,0.16
2022-12-13T12:49:14.941Z,-0.22
2022-12-13T12:50:42.733Z,-0.26
2022-12-13T12:51:51.608Z,-0.29
2022-12-13T12:53:29.303Z,-0.28
2022-12-13T12:54:56.953Z,-0.26
2022-12-13T12:56:20.682Z,-0.26
2022-12-13T12:57:29.248Z,-0.31
2022-12-13T12:58:47.846Z,-0.28
2022-12-13T13:00:12.517Z,-0.28
2022-12-13T13:01:43.718Z,-0.35
2022-12-13T13:03:14.696Z,-0.35
2022-12-13T13:04:10.890Z,-0.40
2022-12-13T13:05:25.438Z,-0.38
2022-12-13T13:06:36.696Z,-0.38
2022-12-13T13:24:47.266Z,-0.71
2022-12-13T13:27:16.884Z,-0.74
2022-12-13T13:28:22.431Z,-0.80
2022-12-13T13:29:32.194Z,-0.76
2022-12-13T13:30:42.315Z,-0.76
2022-12-13T13:32:04.500Z,-0.77
2022-12-13T13:33:12.995Z,-0.78
2022-12-13T13:34:28.364Z,-0.81
2022-12-13T13:35:35.310Z,-0.83
2022-12-13T13:36:45.254Z,-0.83
2022-12-13T13:37:51.085Z,-0.82
2022-12-13T13:39:01.055Z,-0.82
2022-12-13T13:40:30.421Z,-0.87
2022-12-13T13:41:54.024Z,-0.83
2022-12-13T13:43:11.439Z,-0.82
2022-12-13T13:59:55.509Z,-1.10
2022-12-13T14:01:05.224Z,-1.07
2022-12-13T14:14:52.052Z,-1.26
2022-12-13T14:16:20.309Z,-1.23
2022-12-13T21:10:10.892Z,-3.31
2022-12-13T21:11:15.078Z,-3.27
2022-12-13T22:14:27.896Z,-3.43
2022-12-13T22:14:44.408Z,-3.45
2022-12-13T22:15:48.391Z,-3.47
2022-12-13T22:27:37.287Z,-3.68
2022-12-13T22:30:11.878Z,-3.66
2022-12-13T22:31:20.543Z,-3.67
2022-12-13T22:32:28.938Z,-3.67
2022-12-13T22:33:37.955Z,-3.67
2022-12-13T22:34:49.116Z,-3.66
2022-12-13T22:35:53.216Z,-3.64
2022-12-13T22:37:06.393Z,-3.60
2022-12-13T23:05:50.991Z,-3.20
2022-12-13T23:41:46.011Z,-3.89
